Sykesville, Maryland
Current Conditions -  °F | °C
As of 10:30 PM on Saturday 24 Jan 2015 (Local Time) from KDMW Reporting Station
Overcast Overcast  
Wind Chill: 24°   Ceiling: 2900
Heat Index: 34°   Visibility: 10mi
Dew Point: 27°   Wind: 16mph
Humidity: 75%   Direction: 300°WNW
Pressure: 29.59"   Gusts: 23mph
Location:  39.37°N, 76.97°W
Report Text: KDMW 250330Z AUTO 30014G20KT 10SM BKN029 OVC060 01/M03 A2959 RMK AO2
Loading
Personal Weather Stations






























Interactive Weather Map New forecast layout! Learn more

10-Day Weather Forecast

Advertisements
Track Severe Weather on mobile